Tiempo atmosférico en la estación meteorológica de Degaña, Asturias (1305 m.)



Fecha
DESCASC
Temp. máxima en grados centígrados (hora)
DESCASC
Temp. mínima en grados centígrados (hora)
DESCASC
Temp. media en grados centígrados
DESCASC
Racha de viento máxima en m/sg (hora)
DESCASC
Velocidad máxima media en intervalos de 10 minutos(hora)
DESCASC
Precipitaciones diarias en mm
DESCASC
Precipitaciones de 00:00 a 06:00 en mm
DESCASC
Precipitaciones de 06:00 a 12:00 en mm
DESCASC
Precipitaciones de 12:00 a 18:00 en mm
DESCASC
Precipitaciones de 18:00 a 24:00 en mm
DESCASC
31-03-2020 7.7 (15:30) -4.5 (08:00) 1.6 11.11 (14:50) 6.39 (21:50) 0 0 0 0 0
30-03-2020 2.5 (00:00) -2.7 (22:50) -0.1 12.78 (18:50) 5.56 (18:50) 0 0 0 0 0
29-03-2020 10.5 (15:30) 0.3 (00:00) 5.4 8.61 (19:10) 5.56 (19:20) 0 0 0 0 0
28-03-2020 12.6 (13:10) 0.8 (00:00) 6.7 7.78 (13:40) 4.72 (23:40) 0 0 0 0 0
27-03-2020 9.2 (16:40) -3.5 (-00:0) 2.8 10.28 (12:30) 5.28 (09:20) 0 0 0 0 0
26-03-2020 10 (15:00) -2.9 (-00:0) 3.5 7.78 (15:20) 4.44 (16:10) 0 0 0 0 0
25-03-2020 13.1 (15:50) 0.3 (00:00) 6.7 10 (16:20) 4.17 (14:50) 0 0 0 0 0
24-03-2020 14.5 (16:40) 4.8 (00:00) 9.7 7.5 (04:10) 4.17 (02:50) 0 0 0 0 0
23-03-2020 12.4 (13:00) 0.4 (00:00) 6.4 6.39 (13:20) 4.72 (02:30) 0 0 0 0 0
22-03-2020 12.4 (12:00) 2.5 (06:00) 7.4 7.5 (17:20) 4.17 (12:00) 0 0 0 0 0
21-03-2020 12.6 (15:30) 3.5 (00:00) 8.1 9.44 (18:50) 5 (08:10) 1.8 0 0 1 0.8
20-03-2020 8.6 (17:10) 5.3 (00:00) 7 8.33 (16:10) 5 (13:40) 1.2 0 1.2 0 0
19-03-2020 15.7 (12:50) 6.1 (00:00) 10.9 8.33 (09:50) 6.11 (09:10) 1 0 0 0.8 0.2
18-03-2020 17.1 (15:40) 6.2 (00:00) 11.7 9.72 (08:20) 7.22 (08:30) 0 0 0 0 0
17-03-2020 12.2 (13:50) -2.5 (-00:0) 4.8 8.06 (09:30) 4.44 (04:40) 2 0 2 0 0
16-03-2020 2.8 (14:50) -1.7 (-00:0) 0.5 -- (--) -- (--) -- -- -- -- 0
15-03-2020 11.9 (11:10) -1.9 (-00:0) 5 -- (--) -- (--) -- 0 0 -- --
14-03-2020 15.8 (15:50) -0.6 (-00:0) 7.6 5.56 (15:50) 2.22 (15:50) 0 0 0 0 0
13-03-2020 7.2 (16:20) -0.5 (23:10) 3.3 7.22 (08:10) 5.28 (07:50) 0 0 0 0 0
12-03-2020 8.8 (00:00) 3.3 (00:00) 6.1 3.89 (19:30) 1.39 (19:30) 0 0 0 0 0
11-03-2020 19.9 (16:00) 4.1 (00:00) 12 6.94 (16:00) 3.06 (12:10) 0 0 0 0 0
10-03-2020 17.7 (16:00) 3 (00:00) 10.4 5.28 (13:20) 2.22 (11:50) 0 0 0 0 0
09-03-2020 10.8 (16:20) 0.7 (00:00) 5.8 6.39 (14:20) 2.5 (05:30) 0 0 0 0 0
08-03-2020 9.8 (15:00) -0.2 (00:00) 4.8 7.78 (16:30) 2.78 (19:50) 0 0 0 0 0
07-03-2020 8.9 (16:10) 0.7 (00:00) 4.8 7.22 (05:50) 2.78 (05:40) 9.6 6.4 3.2 0 0
06-03-2020 1.6 (16:10) -1.3 (-00:0) 0.2 13.89 (09:40) 6.11 (15:10) 16 0 0 15 1
05-03-2020 8 (00:10) 0.1 (00:00) 4.1 18.06 (05:50) 6.67 (14:20) 28.6 13.2 8.6 5.8 1
04-03-2020 10.2 (15:30) 3.9 (00:00) 7 8.61 (07:50) 3.06 (04:10) 5.8 4.2 1.2 0 0.4
03-03-2020 7.4 (11:50) 0 (00:00) 3.7 -- (--) -- (--) -- -- -- 0 4.2
02-03-2020 6.9 (02:00) -1.8 (-00:0) 2.6 -- (--) -- (--) -- -- -- -- --

Gráficas

Temp. máximas Temp. mínimas Temp. medias Precipitaciones Rachas de viento máximas Velocidades máximas media en intervalos de 10 minutos

Datos horarios

Fecha y hora oficial Temperatura (ºC) Velocidad del viento (km/h) Dirección del viento Racha (km/h) Dirección de racha Precipitación (mm) Presión (hPa) Tendencia (hPa) Humedad (%)
2020-03-31 23:00:00 2.9 16 Este 32 Este 0 -- -- 90
2020-03-31 22:00:00 2.8 20 Este 39 Este 0 -- -- 90
2020-03-31 21:00:00 2.6 20 Este 31 Este 0 -- -- 89
2020-03-31 20:00:00 3.1 17 Este 36 Este 0 -- -- 84
2020-03-31 19:00:00 4.6 20 Este 33 Este 0 -- -- 74
2020-03-31 18:00:00 5.5 14 Este 33 Este 0 -- -- 70
2020-03-31 17:00:00 6.6 15 Este 32 Este 0 -- -- 67
2020-03-31 16:00:00 7.5 18 Este 38 Este 0 -- -- 59
2020-03-31 15:00:00 7.4 17 Este 40 Este 0 -- -- 55
2020-03-31 14:00:00 6.2 15 Este 33 Sudeste 0 -- -- 55
2020-03-31 13:00:00 3.8 20 Este 39 Este 0 -- -- 56
2020-03-31 12:00:00 1.6 18 Este 37 Este 0 -- -- 60
2020-03-31 11:00:00 -0.7 18 Este 31 Este 0 -- -- 57
2020-03-31 10:00:00 -1.9 6 Este 16 Este 0 -- -- 74
2020-03-31 09:00:00 -2.8 6 Este 15 Este 0 -- -- 78
2020-03-31 08:00:00 -4.5 0 Calma 4 Sur 0 -- -- 93
2020-03-31 07:00:00 -3.5 0 Calma 15 Este 0 -- -- 84
2020-03-31 06:00:00 -2.8 9 Este 25 Este 0 -- -- 72
2020-03-31 05:00:00 -2.7 10 Este 36 Este 0 -- -- 71
2020-03-31 04:00:00 -2.5 14 Este 33 Este 0 -- -- 71
2020-03-31 03:00:00 -2.5 11 Este 27 Nordeste 0 -- -- 75
2020-03-31 02:00:00 -2.6 11 Nordeste 31 Este 0 -- -- 78
2020-03-31 01:00:00 -2.6 10 Nordeste 38 Norte 0 -- -- 77
2020-03-31 00:00:00 -2.5 13 Este 24 Nordeste 0 -- -- 74
2020-03-30 23:00:00 -2.5 11 Norte 23 Nordeste 0 -- -- 75
2020-03-30 22:00:00 -2.5 13 Este 37 Nordeste 0 -- -- 70
2020-03-30 21:00:00 -2.4 12 Este 36 Este 0 -- -- 68
2020-03-30 20:00:00 -2.2 18 Este 37 Este 0 -- -- 64
2020-03-30 19:00:00 -1.3 16 Este 46 Este 0 -- -- 65
2020-03-30 18:00:00 -1.5 10 Este 27 Nordeste 0 -- -- 67
2020-03-30 17:00:00 -0.9 9 Este 40 Este 0 -- -- 67
2020-03-30 16:00:00 -0.5 12 Este 35 Este 0 -- -- 66
2020-03-30 15:00:00 -0.5 16 Este 32 Nordeste 0 -- -- 65
2020-03-30 14:00:00 -0.6 15 Este 34 Este 0 -- -- 65
2020-03-30 13:00:00 -0.3 13 Nordeste 36 Este 0 -- -- 68
2020-03-30 12:00:00 0.5 17 Este 35 Este 0 -- -- 59
2020-03-30 11:00:00 -0.9 11 Nordeste 37 Nordeste 0 -- -- 69
2020-03-30 10:00:00 -0.5 18 Nordeste 38 Norte 0 -- -- 58
2020-03-30 09:00:00 -1.7 14 Nordeste 26 Nordeste 0 -- -- 77
2020-03-30 08:00:00 -1.4 10 Nordeste 28 Este 0 -- -- 78
2020-03-30 07:00:00 -1.3 6 Este 20 Nordeste 0 -- -- 76
2020-03-30 06:00:00 -1.1 9 Nordeste 18 Nordeste 0 -- -- 82
2020-03-30 05:00:00 -0.4 6 Nordeste 19 Norte 0 -- -- 83
2020-03-30 04:00:00 0.3 10 Nordeste 23 Nordeste 0 -- -- 83
2020-03-30 03:00:00 0.5 9 Nordeste 23 Este 0 -- -- 88
2020-03-30 02:00:00 0.9 11 Nordeste 22 Norte 0 -- -- 90
2020-03-30 01:00:00 1.7 8 Noroeste 26 Norte 0 -- -- 89
2020-03-30 00:00:00 2.5 14 Norte 25 Noroeste 0 -- -- 88
2020-03-29 23:00:00 2.8 16 Norte 25 Noroeste 0 -- -- 90
2020-03-29 22:00:00 3.6 13 Norte 24 Norte 0 -- -- 81
2020-03-29 21:00:00 4.1 14 Norte 28 Norte 0 -- -- 80
2020-03-29 20:00:00 4.7 17 Norte 31 Norte 0 -- -- 79
2020-03-29 19:00:00 5.7 19 Norte 30 Norte 0 -- -- 74
2020-03-29 18:00:00 6.5 11 Norte 26 Noroeste 0 -- -- 73
2020-03-29 17:00:00 8.5 6 Noroeste 30 Noroeste 0 -- -- 69
2020-03-29 16:00:00 10.4 6 Sur 23 Noroeste 0 -- -- 61
2020-03-29 15:00:00 9.8 7 Sur 19 Sur 0 -- -- 63
2020-03-29 14:00:00 9.4 6 Sudeste 21 Sudoeste 0 -- -- 63
2020-03-29 13:00:00 8.4 4 Noroeste 13 Sudeste 0 -- -- 67
2020-03-29 12:00:00 7.6 4 Oeste 13 Sur 0 -- -- 64
2020-03-29 11:00:00 9.2 4 Sudeste 9 Sur 0 -- -- 50
2020-03-29 10:00:00 7.5 3 Sudeste 5 Sudeste 0 -- -- 56
2020-03-29 09:00:00 2.6 0 Calma 4 Noroeste 0 -- -- 70
2020-03-29 08:00:00 0.6 3 Noroeste 6 Noroeste 0 -- -- 74
2020-03-29 07:00:00 0.6 3 Noroeste 5 Noroeste 0 -- -- 74
2020-03-29 06:00:00 0.5 3 Noroeste 6 Noroeste 0 -- -- 75
2020-03-29 05:00:00 0.6 2 Noroeste 6 Noroeste 0 -- -- 76
2020-03-29 03:00:00 1.1 3 Oeste 7 Este 0 -- -- 78
2020-03-29 01:00:00 1.5 4 Noroeste 10 Este 0 -- -- 81
2020-03-29 00:00:00 5.3 10 Este 22 Este 0 -- -- 73
2020-03-28 23:00:00 3.6 5 Sudeste 10 Este 0 -- -- 88
2020-03-28 22:00:00 2.6 2 Noroeste 4 Noroeste 0 -- -- 88
2020-03-28 21:00:00 4.4 2 Noroeste 5 Noroeste 0 -- -- 85
2020-03-28 20:00:00 6.2 0 Calma 11 Oeste 0 -- -- 81
2020-03-28 19:00:00 8.1 4 Norte 21 Noroeste 0 -- -- 69
2020-03-28 18:00:00 10 12 Noroeste 23 Oeste 0 -- -- 51
2020-03-28 17:00:00 11.2 12 Noroeste 23 Noroeste 0 -- -- 45
2020-03-28 16:00:00 11.8 9 Oeste 27 Oeste 0 -- -- 41
2020-03-28 15:00:00 11.4 10 Noroeste 26 Noroeste 0 -- -- 38
2020-03-28 14:00:00 12.1 8 Noroeste 28 Oeste 0 -- -- 34
2020-03-28 13:00:00 12.3 8 Sudeste 20 Sudeste 0 -- -- 25
2020-03-28 12:00:00 11.9 12 Sudeste 20 Sudeste 0 -- -- 24
2020-03-28 11:00:00 9.3 10 Este 17 Sudeste 0 -- -- 32
2020-03-28 10:00:00 7.8 9 Este 17 Este 0 -- -- 41
2020-03-28 09:00:00 5.1 5 Este 16 Este 0 -- -- 48
2020-03-28 08:00:00 3.5 9 Este 15 Este 0 -- -- 51
2020-03-28 07:00:00 2.8 8 Nordeste 21 Nordeste 0 -- -- 54
2020-03-28 06:00:00 2.9 10 Nordeste 19 Nordeste 0 -- -- 53
2020-03-28 05:00:00 2.5 13 Este 21 Este 0 -- -- 56
2020-03-28 04:00:00 2.5 12 Nordeste 19 Nordeste 0 -- -- 55
2020-03-28 03:00:00 2.8 11 Nordeste 17 Nordeste 0 -- -- 50
2020-03-28 02:00:00 2.2 6 Este 13 Este 0 -- -- 51
2020-03-28 01:00:00 1.8 3 Norte 18 Nordeste 0 -- -- 51
2020-03-28 00:00:00 3.4 9 Nordeste 19 Este 0 -- -- 47
2020-03-27 23:00:00 3.5 10 Nordeste 19 Nordeste 0 -- -- 47
2020-03-27 22:00:00 3.6 10 Nordeste 15 Nordeste 0 -- -- 46
2020-03-27 21:00:00 3.5 3 Nordeste 13 Sudeste 0 -- -- 44
2020-03-27 20:00:00 5 2 Este 17 Sudoeste 0 -- -- 41
2020-03-27 19:00:00 7.1 9 Este 24 Este 0 -- -- 35
2020-03-27 18:00:00 8.2 13 Este 26 Este 0 -- -- 32
2020-03-27 17:00:00 8.9 15 Este 27 Sudeste 0 -- -- 30
2020-03-27 16:00:00 9 15 Este 30 Este 0 -- -- 28
2020-03-27 15:00:00 8.7 14 Este 31 Sudeste 0 -- -- 28
2020-03-27 14:00:00 8.1 16 Este 32 Este 0 -- -- 28
2020-03-27 13:00:00 6.5 13 Este 37 Este 0 -- -- 30
2020-03-27 12:00:00 6.8 13 Este 35 Este 0 -- -- 32
2020-03-27 11:00:00 3.9 12 Este 30 Este 0 -- -- 45
2020-03-27 10:00:00 1.3 15 Este 30 Este 0 -- -- 56
2020-03-27 09:00:00 -0.5 14 Este 30 Este 0 -- -- 67
2020-03-27 08:00:00 -1.8 17 Nordeste 29 Este 0 -- -- 65
2020-03-27 07:00:00 -1.6 14 Nordeste 26 Este 0 -- -- 63
2020-03-27 06:00:00 -1.9 10 Nordeste 21 Este 0 -- -- 72
2020-03-27 05:00:00 -1.7 4 Nordeste 18 Nordeste 0 -- -- 77
2020-03-27 04:00:00 -1.7 11 Nordeste 19 Nordeste 0 -- -- 77
2020-03-27 03:00:00 -1.7 12 Nordeste 18 Nordeste 0 -- -- 80
2020-03-27 02:00:00 -3.4 0 Calma 8 Norte 0 -- -- 85
2020-03-27 01:00:00 -2.7 0 Calma 7 Nordeste 0 -- -- 83
2020-03-27 00:00:00 -2.4 3 Noroeste 5 Noroeste 0 -- -- 86
2020-03-26 23:00:00 -1.4 3 Oeste 18 Nordeste 0 -- -- 83
2020-03-26 22:00:00 -0.3 2 Noroeste 21 Noroeste 0 -- -- 84
2020-03-26 21:00:00 1.6 6 Nordeste 22 Norte 0 -- -- 80
2020-03-26 20:00:00 2.7 13 Norte 23 Norte 0 -- -- 79
2020-03-26 19:00:00 4.6 8 Noroeste 21 Noroeste 0 -- -- 70
2020-03-26 18:00:00 6.5 11 Noroeste 23 Noroeste 0 -- -- 61
2020-03-26 17:00:00 8.1 11 Noroeste 27 Oeste 0 -- -- 57
2020-03-26 16:00:00 9.3 12 Noroeste 28 Sudeste 0 -- -- 52
2020-03-26 15:00:00 10 6 Noroeste 20 Sur 0 -- -- 51
2020-03-26 14:00:00 8.9 6 Oeste 18 Sudeste 0 -- -- 49
2020-03-26 13:00:00 7.9 4 Noroeste 20 Sudoeste 0 -- -- 40
2020-03-26 12:00:00 6.6 6 Sudoeste 19 Sur 0 -- -- 41
2020-03-26 11:00:00 5.4 4 Norte 14 Sur 0 -- -- 40
2020-03-26 10:00:00 4.2 4 Sur 12 Sur 0 -- -- 41
2020-03-26 09:00:00 2.7 3 Sudeste 9 Este 0 -- -- 47
2020-03-26 08:00:00 -1.8 0 Calma 9 Noroeste 0 -- -- 44
2020-03-26 07:00:00 -2.8 2 Noroeste 8 Noroeste 0 -- -- 47
2020-03-26 06:00:00 -2.5 2 Norte 8 Noroeste 0 -- -- 43
2020-03-26 05:00:00 -2.1 3 Noroeste 7 Noroeste 0 -- -- 42
2020-03-26 04:00:00 -1.8 3 Noroeste 7 Noroeste 0 -- -- 52
2020-03-26 03:00:00 -1.6 2 Noroeste 9 Noroeste 0 -- -- 67
2020-03-26 02:00:00 -1.5 3 Noroeste 6 Noroeste 0 -- -- 68
2020-03-26 01:00:00 -0.7 0 Calma 7 Oeste 0 -- -- 67
2020-03-26 00:00:00 1 3 Sudoeste 13 Noroeste 0 -- -- 58
2020-03-25 23:00:00 1 4 Noroeste 8 Norte 0 -- -- 64
2020-03-25 22:00:00 3.3 3 Noroeste 19 Noroeste 0 -- -- 47
2020-03-25 21:00:00 4.6 3 Oeste 14 Oeste 0 -- -- 34
2020-03-25 20:00:00 7.3 5 Oeste 24 Noroeste 0 -- -- 37
2020-03-25 19:00:00 9 6 Oeste 23 Sudoeste 0 -- -- 42
2020-03-25 18:00:00 10.4 6 Oeste 34 Noroeste 0 -- -- 44
2020-03-25 17:00:00 11.9 9 Oeste 36 Oeste 0 -- -- 46
2020-03-25 16:00:00 12.9 9 Sudoeste 33 Oeste 0 -- -- 40
2020-03-25 15:00:00 12.7 12 Noroeste 31 Noroeste 0 -- -- 38
2020-03-25 14:00:00 12.3 11 Oeste 28 Noroeste 0 -- -- 40
2020-03-25 13:00:00 12.2 12 Oeste 29 Noroeste 0 -- -- 46
2020-03-25 12:00:00 11.9 6 Este 19 Sudeste 0 -- -- 59
2020-03-25 11:00:00 9.4 3 Sudoeste 10 Sur 0 -- -- 70
2020-03-25 10:00:00 7.5 0 Calma 8 Oeste 0 -- -- 77
2020-03-25 09:00:00 6.9 2 Sudoeste 9 Sudoeste 0 -- -- 80
2020-03-25 08:00:00 3.7 5 Noroeste 10 Norte 0 -- -- 92
2020-03-25 07:00:00 3.4 3 Noroeste 6 Noroeste 0 -- -- 92
2020-03-25 06:00:00 4 3 Noroeste 5 Noroeste 0 -- -- 92
2020-03-25 05:00:00 3 4 Noroeste 6 Noroeste 0 -- -- 92
2020-03-25 04:00:00 3 4 Noroeste 6 Noroeste 0 -- -- 92
2020-03-25 03:00:00 3.4 5 Noroeste 6 Noroeste 0 -- -- 92
2020-03-25 02:00:00 3.3 4 Noroeste 6 Noroeste 0 -- -- 91
2020-03-25 01:00:00 4.1 4 Norte 10 Norte 0 -- -- 89
2020-03-25 00:00:00 6.9 5 Nordeste 15 Nordeste 0 -- -- 83
2020-03-24 23:00:00 4.9 5 Norte 10 Nordeste 0 -- -- 90
2020-03-24 22:00:00 5.4 2 Noroeste 4 Noroeste 0 -- -- 91
2020-03-24 21:00:00 7.1 0 Calma 4 Norte 0 -- -- 85
2020-03-24 20:00:00 9.5 2 Oeste 15 Oeste 0 -- -- 81
2020-03-24 19:00:00 11.1 4 Oeste 21 Noroeste 0 -- -- 71
2020-03-24 18:00:00 12.1 14 Noroeste 21 Oeste 0 -- -- 60
2020-03-24 17:00:00 14.5 8 Sur 20 Sudoeste 0 -- -- 43
2020-03-24 16:00:00 13.9 5 Noroeste 17 Sudeste 0 -- -- 46
2020-03-24 15:00:00 13 6 Sudeste 18 Sudeste 0 -- -- 51
2020-03-24 14:00:00 11.8 10 Este 24 Sudeste 0 -- -- 54
2020-03-24 13:00:00 10.8 7 Este 22 Este 0 -- -- 58
2020-03-24 12:00:00 9.4 12 Este 25 Este 0 -- -- 64
2020-03-24 11:00:00 8.7 9 Este 22 Este 0 -- -- 67
2020-03-24 10:00:00 7.7 14 Este 24 Este 0 -- -- 73
2020-03-24 09:00:00 6.1 11 Este 23 Este 0 -- -- 78
2020-03-24 08:00:00 5.7 10 Nordeste 19 Nordeste 0 -- -- 82
2020-03-24 07:00:00 6 9 Este 24 Este 0 -- -- 81
2020-03-24 06:00:00 6.1 9 Este 22 Nordeste 0 -- -- 79
2020-03-24 05:00:00 6.2 10 Este 27 Este 0 -- -- 80
2020-03-24 04:00:00 6.1 13 Este 24 Este 0 -- -- 83
2020-03-24 03:00:00 6.2 13 Este 26 Este 0 -- -- 83
2020-03-24 02:00:00 6.2 9 Este 22 Este 0 -- -- 82
2020-03-24 01:00:00 6.5 10 Este 22 Este 0 -- -- 77
2020-03-24 00:00:00 6.9 10 Este 22 Este 0 -- -- 76
2020-03-23 23:00:00 5.2 6 Este 14 Nordeste 0 -- -- 84
2020-03-23 22:00:00 4.2 3 Noroeste 5 Oeste 0 -- -- 96
2020-03-23 21:00:00 5.3 0 Calma 3 Norte 0 -- -- 95
2020-03-23 20:00:00 6.4 0 Calma 5 Sur 0 -- -- 91
2020-03-23 19:00:00 7.6 2 Noroeste 8 Sur 0 -- -- 84
2020-03-23 18:00:00 9.5 4 Sur 13 Sudeste 0 -- -- 76
2020-03-23 17:00:00 10.5 6 Norte 17 Sur 0 -- -- 69
2020-03-23 16:00:00 10.7 4 Sur 14 Sur 0 -- -- 68
2020-03-23 15:00:00 11.1 5 Sudeste 13 Sur 0 -- -- 64
2020-03-23 14:00:00 11.5 5 Sur 23 Sudeste 0 -- -- 58
2020-03-23 13:00:00 12.4 7 Sur 19 Sur 0 -- -- 51
2020-03-23 12:00:00 11.1 11 Sudeste 18 Sudeste 0 -- -- 53
2020-03-23 11:00:00 9.2 10 Este 18 Nordeste 0 -- -- 53
2020-03-23 10:00:00 7.5 7 Este 14 Este 0 -- -- 60
2020-03-23 09:00:00 6.5 8 Este 15 Nordeste 0 -- -- 61
2020-03-23 08:00:00 3.7 8 Nordeste 13 Este 0 -- -- 69
2020-03-23 07:00:00 0.5 0 Calma 7 Nordeste 0 -- -- 83
2020-03-23 06:00:00 1.9 2 Sudeste 12 Nordeste 0 -- -- 77
2020-03-23 05:00:00 1.9 7 Nordeste 12 Nordeste 0 -- -- 79
2020-03-23 04:00:00 4 4 Este 19 Este 0 -- -- 74
2020-03-23 03:00:00 4.4 12 Este 21 Este 0 -- -- 82
2020-03-23 02:00:00 4.6 13 Nordeste 19 Nordeste 0 -- -- 81
2020-03-23 01:00:00 4.6 9 Nordeste 16 Nordeste 0 -- -- 83
2020-03-23 00:00:00 5.2 5 Nordeste 13 Nordeste 0 -- -- 81
2020-03-22 23:00:00 5 6 Nordeste 15 Este 0 -- -- 84
2020-03-22 22:00:00 4.8 0 Calma 5 Sudeste 0 -- -- 93
2020-03-22 21:00:00 5.7 0 Calma 4 Sudeste 0 -- -- 96
2020-03-22 20:00:00 6.1 0 Calma 21 Noroeste 0 -- -- 95
2020-03-22 19:00:00 7.3 12 Norte 27 Norte 0 -- -- 79
2020-03-22 18:00:00 7.6 6 Sur 27 Norte 0 -- -- 82
2020-03-22 17:00:00 7.3 4 Oeste 18 Oeste 0 -- -- 94
2020-03-22 16:00:00 8.3 4 Sudeste 17 Sudoeste 0 -- -- 90
2020-03-22 15:00:00 8.6 3 Nordeste 14 Sudoeste 0 -- -- 87
2020-03-22 14:00:00 10.3 4 Nordeste 22 Sur 0 -- -- 78
2020-03-22 13:00:00 11.6 8 Sudoeste 22 Sur 0 -- -- 71
2020-03-22 12:00:00 12.4 15 Sudeste 23 Sudeste 0 -- -- 63
2020-03-22 11:00:00 9.7 8 Sudeste 12 Sudeste 0 -- -- 71
2020-03-22 10:00:00 6.5 4 Sur 8 Sur 0 -- -- 88
2020-03-22 09:00:00 6.1 3 Sur 12 Este 0 -- -- 88
2020-03-22 08:00:00 3.6 2 Nordeste 4 Norte 0 -- -- 97
2020-03-22 07:00:00 2.8 0 Calma 6 Noroeste 0 -- -- 96
2020-03-22 06:00:00 2.5 2 Noroeste 9 Nordeste 0 -- -- 95
2020-03-22 05:00:00 3.3 2 Nordeste 10 Nordeste 0 -- -- 92
2020-03-22 04:00:00 3.5 0 Calma 12 Norte 0 -- -- 94
2020-03-22 03:00:00 3.1 3 Noroeste 6 Noroeste 0 -- -- 97
2020-03-22 02:00:00 3 3 Norte 10 Nordeste 0 -- -- 95
2020-03-22 01:00:00 4.6 5 Este 15 Este 0 -- -- 87
2020-03-22 00:00:00 4.4 3 Noroeste 6 Nordeste 0 -- -- 95
2020-03-21 23:00:00 3.7 2 Oeste 8 Oeste 0 -- -- 96
2020-03-21 22:00:00 3.7 0 Calma 6 Noroeste 0 -- -- 96
2020-03-21 21:00:00 4.1 2 Norte 8 Noroeste 0 -- -- 93
2020-03-21 20:00:00 4.8 2 Norte 18 Noroeste 0 -- -- 93
2020-03-21 19:00:00 7.1 16 Norte 34 Norte 0.8 -- -- 80
2020-03-21 18:00:00 8.1 4 Sudeste 26 Norte 1 -- -- 84
2020-03-21 17:00:00 10 10 Noroeste 21 Noroeste 0 -- -- 71
2020-03-21 16:00:00 11.6 4 Sudeste 16 Sur 0 -- -- 68
2020-03-21 15:00:00 11.5 4 Sur 11 Noroeste 0 -- -- 70
2020-03-21 14:00:00 10.5 4 Sudeste 18 Sudeste 0 -- -- 74
2020-03-21 13:00:00 10.5 8 Sudeste 16 Este 0 -- -- 72
2020-03-21 12:00:00 9.1 9 Nordeste 22 Este 0 -- -- 74
2020-03-21 11:00:00 7 10 Este 26 Este 0 -- -- 85
2020-03-21 10:00:00 5.9 14 Este 26 Este 0 -- -- 91
2020-03-21 09:00:00 5.3 13 Este 28 Este 0 -- -- 94
2020-03-21 08:00:00 5.5 17 Este 30 Este 0 -- -- 91
2020-03-21 07:00:00 6.1 14 Este 28 Este 0 -- -- 91
2020-03-21 06:00:00 6.4 11 Este 23 Este 0 -- -- 89
2020-03-21 05:00:00 6.7 9 Este 20 Este 0 -- -- 87
2020-03-21 04:00:00 7.1 7 Nordeste 20 Este 0 -- -- 86
2020-03-21 03:00:00 7.3 4 Nordeste 21 Este 0 -- -- 85
2020-03-21 02:00:00 7.4 14 Este 26 Nordeste 0 -- -- 86
2020-03-21 01:00:00 7 13 Nordeste 22 Este 0 -- -- 88
2020-03-21 00:00:00 6.8 9 Nordeste 17 Este 0 -- -- 86
2020-03-20 23:00:00 7.3 3 Noroeste 15 Este 0 -- -- 81
2020-03-20 22:00:00 7.1 6 Nordeste 21 Este 0 -- -- 83
2020-03-20 21:00:00 7.2 4 Este 18 Nordeste 0 -- -- 84
2020-03-20 20:00:00 7.2 9 Este 25 Este 0 -- -- 86
2020-03-20 19:00:00 7.7 13 Este 23 Este 0 -- -- 84
2020-03-20 18:00:00 8.2 14 Este 28 Este 0 -- -- 81
2020-03-20 17:00:00 8.4 14 Este 30 Este 0 -- -- 78
2020-03-20 16:00:00 8.1 17 Este 27 Este 0 -- -- 83
2020-03-20 15:00:00 8.1 13 Este 26 Este 0 -- -- 82
2020-03-20 14:00:00 7.2 14 Este 28 Este 0 -- -- 88
2020-03-20 13:00:00 7.2 13 Este 23 Este 0 -- -- 87
2020-03-20 12:00:00 6.4 15 Este 25 Este 0 -- -- 90
2020-03-20 11:00:00 6.3 13 Este 26 Nordeste 0 -- -- 91
2020-03-20 10:00:00 5.8 14 Nordeste 24 Este 0 -- -- 91
2020-03-20 09:00:00 5.7 11 Nordeste 22 Este 0.6 -- -- 89
2020-03-20 08:00:00 5.4 14 Este 27 Este 0.6 -- -- 89
2020-03-20 07:00:00 5.9 14 Nordeste 27 Este 0 -- -- 84
2020-03-20 06:00:00 6.3 14 Nordeste 26 Este 0 -- -- 80
2020-03-20 05:00:00 6.5 16 Nordeste 26 Este 0 -- -- 78
2020-03-20 04:00:00 7 15 Nordeste 25 Nordeste 0 -- -- 74
2020-03-20 03:00:00 6.9 14 Nordeste 27 Nordeste 0 -- -- 74
2020-03-20 02:00:00 7.5 15 Nordeste 25 Nordeste 0 -- -- 62
2020-03-20 01:00:00 7.9 11 Este 26 Nordeste 0 -- -- 56
2020-03-20 00:00:00 8.4 16 Este 26 Este 0 -- -- 56
2020-03-19 23:00:00 8.3 13 Este 24 Este 0 -- -- 58
2020-03-19 22:00:00 8.7 14 Este 25 Este 0 -- -- 60
2020-03-19 21:00:00 9.1 10 Nordeste 18 Nordeste 0 -- -- 66
2020-03-19 20:00:00 9.1 9 Este 17 Este 0 -- -- 76
2020-03-19 19:00:00 9.5 12 Nordeste 18 Este 0.2 -- -- 73
2020-03-19 18:00:00 9.5 13 Este 21 Nordeste 0 -- -- 78
2020-03-19 17:00:00 9.7 4 Sudeste 12 Este 0.8 -- -- 82
2020-03-19 16:00:00 11.3 12 Este 27 Nordeste 0 -- -- 66
2020-03-19 15:00:00 13.5 7 Sudeste 27 Este 0 -- -- 59
2020-03-19 14:00:00 13.2 16 Este 25 Este 0 -- -- 53
2020-03-19 13:00:00 15.2 5 Noroeste 18 Sudeste 0 -- -- 52
2020-03-19 12:00:00 14.5 9 Sudeste 18 Este 0 -- -- 53
2020-03-19 11:00:00 11.8 12 Este 26 Este 0 -- -- 65
2020-03-19 10:00:00 9.9 17 Este 30 Este 0 -- -- 72
2020-03-19 09:00:00 9 18 Nordeste 29 Este 0 -- -- 75
2020-03-19 08:00:00 8.4 16 Nordeste 23 Nordeste 0 -- -- 74
2020-03-19 07:00:00 8.5 11 Nordeste 17 Este 0 -- -- 70
2020-03-19 06:00:00 6.7 5 Nordeste 11 Nordeste 0 -- -- 74
2020-03-19 05:00:00 6.3 3 Norte 10 Este 0 -- -- 77
2020-03-19 04:00:00 6.8 2 Noroeste 10 Nordeste 0 -- -- 74
2020-03-19 03:00:00 9.1 4 Nordeste 17 Nordeste 0 -- -- 66
2020-03-19 02:00:00 10 11 Nordeste 18 Nordeste 0 -- -- 65
2020-03-19 01:00:00 10 11 Nordeste 23 Este 0 -- -- 69
2020-03-19 00:00:00 10.2 15 Este 24 Este 0 -- -- 70
2020-03-18 23:00:00 10.6 14 Nordeste 21 Nordeste 0 -- -- 69
2020-03-18 22:00:00 10.8 13 Nordeste 19 Este 0 -- -- 69
2020-03-18 21:00:00 8 2 Norte 4 Norte 0 -- -- 83
2020-03-18 20:00:00 9.7 2 Noroeste 6 Norte 0 -- -- 76
2020-03-18 19:00:00 13.3 2 Noroeste 12 Sudoeste 0 -- -- 66
2020-03-18 18:00:00 16.1 5 Noroeste 13 Noroeste 0 -- -- 47
2020-03-18 17:00:00 16.8 5 Sudeste 14 Noroeste 0 -- -- 39
2020-03-18 16:00:00 16.9 4 Este 17 Noroeste 0 -- -- 38
2020-03-18 15:00:00 16.7 5 Noroeste 19 Noroeste 0 -- -- 41
2020-03-18 14:00:00 16.1 6 Sudoeste 15 Este 0 -- -- 44
2020-03-18 13:00:00 15.6 7 Sudeste 15 Sur 0 -- -- 45
2020-03-18 12:00:00 14.6 10 Sudeste 17 Sudeste 0 -- -- 49
2020-03-18 11:00:00 12.3 7 Este 27 Este 0 -- -- 58
2020-03-18 10:00:00 9.6 12 Este 31 Este 0 -- -- 71
2020-03-18 09:00:00 6.8 22 Este 35 Este 0 -- -- 84
2020-03-18 08:00:00 6.2 22 Este 33 Este 0 -- -- 85
2020-03-18 07:00:00 6.4 19 Nordeste 27 Este 0 -- -- 85
2020-03-18 06:00:00 6.4 19 Nordeste 27 Este 0 -- -- 86
2020-03-18 05:00:00 6.6 17 Nordeste 25 Nordeste 0 -- -- 85
2020-03-18 04:00:00 6.7 15 Este 23 Este 0 -- -- 85
2020-03-18 03:00:00 6.6 12 Este 17 Este 0 -- -- 87
2020-03-18 02:00:00 6.5 9 Nordeste 17 Este 0 -- -- 87
2020-03-18 01:00:00 6.6 11 Nordeste 23 Este 0 -- -- 86
2020-03-18 00:00:00 6.8 15 Este 21 Este 0 -- -- 85
2020-03-17 23:00:00 6.7 11 Nordeste 21 Nordeste 0 -- -- 84
2020-03-17 22:00:00 7.2 14 Este 22 Este 0 -- -- 82
2020-03-17 21:00:00 7.6 13 Este 26 Este 0 -- -- 82
2020-03-17 20:00:00 8.3 14 Este 26 Este 0 -- -- 79
2020-03-17 19:00:00 9.5 12 Este 23 Este 0 -- -- 74
2020-03-17 18:00:00 9.1 0 Calma 6 Sudoeste 0 -- -- 80
2020-03-17 17:00:00 8.7 2 Oeste 11 Sudoeste 0 -- -- 81
2020-03-17 16:00:00 9.4 4 Noroeste 13 Sudoeste 0 -- -- 77
2020-03-17 15:00:00 9.8 2 Sudoeste 14 Sur 0 -- -- 75
2020-03-17 14:00:00 11.8 7 Sur 23 Este 0 -- -- 65
2020-03-17 13:00:00 11.1 10 Este 28 Sudeste 0 -- -- 64
2020-03-17 12:00:00 9.1 13 Este 26 Este 0 -- -- 67
2020-03-17 11:00:00 8.7 12 Este 21 Este 0.8 -- -- 65
2020-03-17 10:00:00 7.4 15 Este 29 Este 1.2 -- -- 68
2020-03-17 09:00:00 3.2 15 Nordeste 25 Nordeste 0 -- -- 87
2020-03-17 08:00:00 -2.4 0 Calma 5 Noroeste 0 -- -- 96
2020-03-17 07:00:00 -1.8 0 Calma 3 Nordeste 0 -- -- 96
2020-03-17 06:00:00 -0.9 2 Oeste 7 Oeste 0 -- -- 93
2020-03-17 05:00:00 2 5 Sudeste 27 Nordeste 0 -- -- 76
2020-03-17 04:00:00 -0.9 4 Nordeste 19 Nordeste 0 -- -- 94
2020-03-17 03:00:00 1.1 13 Este 22 Este 0 -- -- 78
2020-03-17 02:00:00 -0.9 0 Calma 14 Nordeste 0 -- -- 94
2020-03-17 01:00:00 0.9 6 Este 19 Este 0 -- -- 79
2020-03-17 00:00:00 0.8 16 Nordeste 35 Norte 0 -- -- 77
2020-03-16 23:00:00 0.2 19 Nordeste 41 Nordeste 0 -- -- 81
2020-03-16 22:00:00 0.2 12 Nordeste 40 Nordeste 0 -- -- 81
2020-03-16 21:00:00 0.3 18 Norte 32 Norte 0 -- -- 81
2020-03-16 20:00:00 0.4 19 Nordeste 48 Nordeste 0 -- -- 79
2020-03-16 19:00:00 0.7 13 Nordeste 44 Este 0 -- -- 79
2020-03-16 18:00:00 0.7 10 Este 39 Este 0.6 -- -- 89
2020-03-16 17:00:00 1.2 10 Sudeste 39 Este 1 -- -- 90
2020-03-16 16:00:00 1.6 15 Sudeste 36 Este 2.4 -- -- 88
2020-03-16 15:00:00 2.6 12 Este 38 Este 4.8 -- -- 81
2020-03-16 14:00:00 1.8 12 Sudeste 40 Sudeste 4 -- -- 88
2020-03-16 13:00:00 1.8 12 Sur 44 Sudeste 2.6 -- -- 84
2020-03-16 12:00:00 1.2 19 Sudeste 53 Este 0.6 -- -- 84
2020-03-16 11:00:00 0.7 9 Sur 41 Sudeste 0 -- -- 86
2020-03-16 10:00:00 -0.1 14 Sudeste 40 Este 0 -- -- 85
2020-03-16 09:00:00 -0.7 12 Sur 38 Sudeste 0 -- -- 89
2020-03-16 08:00:00 -1.3 13 Sur 35 Sudeste 0 -- -- 90
2020-03-16 07:00:00 -1.3 14 Sur 41 Oeste 0 -- -- 89
2020-03-16 06:00:00 -1.4 9 Sur 38 Noroeste 0 -- -- 90
2020-03-16 05:00:00 -1.3 8 Este 33 Sur 0 -- -- 91
2020-03-16 04:00:00 -1.1 6 Noroeste 33 Sur 0 -- -- 89
2020-03-16 03:00:00 -1.2 13 Sudeste 37 Este 0 -- -- 91
2020-03-16 02:00:00 -1.3 10 Sudeste 35 Noroeste 0 -- -- 92
2020-03-16 01:00:00 -1.7 0 Calma -- -- 0 -- -- 96
2020-03-16 00:00:00 -1.7 0 Calma 5 Sudeste 0 -- -- 97
2020-03-15 23:00:00 -1.6 0 Calma 12 Sudeste 0 -- -- 95
2020-03-15 22:00:00 -1.9 3 Sudeste 12 Sur 0 -- -- 97
2020-03-15 21:00:00 -1.8 0 Calma 9 Sudoeste 0 -- -- 97
2020-03-15 20:00:00 -1.5 0 Calma 16 Oeste 0 -- -- 96
2020-03-15 19:00:00 -1.2 3 Oeste 11 Noroeste 0 -- -- 95
2020-03-15 18:00:00 -0.7 5 Noroeste 19 Oeste 0 -- -- 94
2020-03-15 17:00:00 2.4 9 Noroeste 25 Noroeste 0 -- -- 87
2020-03-15 16:00:00 9.8 3 Nordeste 17 Sudeste 0 -- -- 57
2020-03-15 15:00:00 10.9 6 Noroeste 19 Noroeste 0 -- -- 42
2020-03-15 14:00:00 11.4 6 Norte 20 Oeste 0 -- -- 40
2020-03-15 13:00:00 9.9 7 Sudeste 21 Sur 0 -- -- 58
2020-03-15 12:00:00 11.2 5 Sudeste 18 Sur 0 -- -- 44
2020-03-15 11:00:00 11.8 5 Este 19 Sudeste 0 -- -- 32
2020-03-15 10:00:00 10.6 8 Sudeste 16 Sudeste 0 -- -- 34
2020-03-15 09:00:00 7.7 6 Este 12 Sur 0 -- -- 45
2020-03-15 08:00:00 2.1 2 Noroeste 8 Oeste 0 -- -- 64
2020-03-15 07:00:00 2.1 4 Noroeste 8 Oeste 0 -- -- 64
2020-03-15 06:00:00 2.7 4 Noroeste 9 Noroeste 0 -- -- 58
2020-03-15 05:00:00 3.1 4 Norte 12 Norte 0 -- -- 57
2020-03-15 04:00:00 3.3 3 Noroeste 8 Noroeste 0 -- -- 57
2020-03-15 03:00:00 4.5 4 Noroeste 22 Sudeste 0 -- -- 52
2020-03-15 02:00:00 5 4 Norte 15 Sudeste 0 -- -- 60
2020-03-15 01:00:00 4.1 3 Noroeste 9 Noroeste 0 -- -- 68
2020-03-15 00:00:00 4.6 2 Oeste 9 Noroeste 0 -- -- 70
2020-03-14 23:00:00 4.6 3 Noroeste 8 Noroeste 0 -- -- 68
2020-03-14 22:00:00 4.7 3 Noroeste 5 Oeste 0 -- -- 65
2020-03-14 21:00:00 5.1 5 Noroeste 7 Oeste 0 -- -- 62
2020-03-14 20:00:00 6.6 5 Noroeste 6 Noroeste 0 -- -- 59
2020-03-14 19:00:00 11.1 2 Nordeste 9 Noroeste 0 -- -- 42
2020-03-14 18:00:00 13.3 4 Nordeste 14 Sudeste 0 -- -- 41
2020-03-14 17:00:00 15.2 4 Este 17 Sur 0 -- -- 33
2020-03-14 16:00:00 15.7 4 Sudeste 20 Sur 0 -- -- 24
2020-03-14 15:00:00 15.3 6 Sudeste 19 Sur 0 -- -- 19
2020-03-14 14:00:00 13.5 6 Oeste 15 Sudoeste 0 -- -- 24
2020-03-14 13:00:00 12.2 4 Oeste 14 Sudoeste 0 -- -- 28
2020-03-14 12:00:00 11.1 4 Sur 14 Sur 0 -- -- 30
2020-03-14 11:00:00 10.4 3 Oeste 12 Oeste 0 -- -- 29
2020-03-14 10:00:00 10 3 Sudeste 7 Sudeste 0 -- -- 36
2020-03-14 09:00:00 4.6 0 Calma 6 Noroeste 0 -- -- 53
2020-03-14 08:00:00 0.3 3 Noroeste 7 Noroeste 0 -- -- 65
2020-03-14 07:00:00 -0.3 4 Noroeste 7 Noroeste 0 -- -- 73
2020-03-14 06:00:00 0 4 Noroeste 7 Noroeste 0 -- -- 68
2020-03-14 05:00:00 0.1 4 Noroeste 6 Noroeste 0 -- -- 69
2020-03-14 04:00:00 0.3 4 Noroeste 6 Noroeste 0 -- -- 67
2020-03-14 03:00:00 0.2 4 Noroeste 6 Noroeste 0 -- -- 62
2020-03-14 02:00:00 0 4 Noroeste 6 Noroeste 0 -- -- 65
2020-03-14 01:00:00 0.4 4 Noroeste 6 Oeste 0 -- -- 65
2020-03-14 00:00:00 0.4 2 Noroeste 6 Noroeste 0 -- -- 66
2020-03-13 23:00:00 -0.1 0 Calma 7 Oeste 0 -- -- 85
2020-03-13 22:00:00 0.4 2 Noroeste 6 Noroeste 0 -- -- 86
2020-03-13 21:00:00 3.2 2 Noroeste 4 Norte 0 -- -- 97
2020-03-13 20:00:00 3.1 2 Oeste 4 Noroeste 0 -- -- 97
2020-03-13 19:00:00 5 0 Calma 6 Sur 0 -- -- 92
2020-03-13 18:00:00 5.8 0 Calma 6 Noroeste 0 -- -- 93
2020-03-13 17:00:00 6.6 2 Norte 15 Sur 0 -- -- 90
2020-03-13 16:00:00 7 4 Sur 10 Sur 0 -- -- 90
2020-03-13 15:00:00 5.5 2 Noroeste 9 Este 0 -- -- 95
2020-03-13 14:00:00 5.2 2 Este 7 Sur 0 -- -- 96
2020-03-13 13:00:00 4.9 2 Este 10 Sur 0 -- -- 97
2020-03-13 12:00:00 5 3 Sudoeste 10 Sur 0 -- -- 96
2020-03-13 11:00:00 5.4 5 Sur 15 Este 0 -- -- 93
2020-03-13 10:00:00 4.7 4 Sudeste 18 Este 0 -- -- 95
2020-03-13 09:00:00 3.7 14 Este 26 Este 0 -- -- 95
2020-03-13 08:00:00 3.3 16 Este 24 Este 0 -- -- 94
2020-03-13 07:00:00 3.2 13 Este 21 Este 0 -- -- 100
2020-03-13 06:00:00 2.2 0 Calma 5 Nordeste 0 -- -- 100
2020-03-13 05:00:00 2.2 0 Calma 4 Sur 0 -- -- 100
2020-03-13 04:00:00 2.3 0 Calma 3 Sur 0 -- -- 100
2020-03-13 03:00:00 2.4 0 Calma 12 Sudoeste 0 -- -- 99
2020-03-13 02:00:00 3.7 3 Sur 18 Este 0 -- -- 97
2020-03-13 01:00:00 3.2 2 Sudeste 8 Este 0 -- -- 100
2020-03-13 00:00:00 3.3 0 Calma 3 Sudeste 0 -- -- 100
2020-03-12 23:00:00 3.4 0 Calma 4 Sur 0 -- -- 100
2020-03-12 22:00:00 3.6 0 Calma 8 Norte 0 -- -- 100
2020-03-12 21:00:00 4.1 2 Sudoeste 6 Sur 0 -- -- 99
2020-03-12 20:00:00 4.6 3 Sudoeste 14 Oeste 0 -- -- 99
2020-03-12 19:00:00 5 2 Sur 8 Sudoeste 0 -- -- 99
2020-03-12 18:00:00 5.2 2 Nordeste 9 Oeste 0 -- -- 98
2020-03-12 17:00:00 5.8 3 Oeste 12 Sudoeste 0 -- -- 97
2020-03-12 16:00:00 7.1 3 Sur 10 Sur 0 -- -- 93
2020-03-12 15:00:00 8 3 Norte 10 Sur 0 -- -- 91
2020-03-12 14:00:00 8.2 3 Este 12 Sudoeste 0 -- -- 88
2020-03-12 13:00:00 8 3 Sur 11 Sur 0 -- -- 90
2020-03-12 12:00:00 7.2 4 Noroeste 8 Oeste 0 -- -- 91
2020-03-12 11:00:00 6.6 2 Noroeste 6 Noroeste 0 -- -- 98
2020-03-12 10:00:00 5.7 3 Oeste 7 Oeste 0 -- -- 100
2020-03-12 09:00:00 5.2 3 Noroeste 7 Noroeste 0 -- -- 99
2020-03-12 08:00:00 4.7 0 Calma 4 Norte 0 -- -- 99
2020-03-12 07:00:00 3.6 2 Noroeste 5 Noroeste 0 -- -- 97
2020-03-12 06:00:00 3.9 0 Calma 2 Noroeste 0 -- -- 92
2020-03-12 05:00:00 4.1 0 Calma 4 Oeste 0 -- -- 92
2020-03-12 04:00:00 5.9 2 Norte 6 Sudoeste 0 -- -- 95
2020-03-12 03:00:00 7.1 0 Calma 5 Oeste 0 -- -- 76
2020-03-12 02:00:00 7.6 3 Noroeste 7 Oeste 0 -- -- 73
2020-03-12 01:00:00 8 0 Calma 5 Noroeste 0 -- -- 71
2020-03-12 00:00:00 8.8 2 Oeste 11 Oeste 0 -- -- 67
2020-03-11 23:00:00 10 3 Sudoeste 6 Oeste 0 -- -- 63
2020-03-11 22:00:00 9.8 3 Oeste 6 Noroeste 0 -- -- 67
2020-03-11 21:00:00 9.8 3 Oeste 6 Noroeste 0 -- -- 70
2020-03-11 20:00:00 12.7 0 Calma 11 Norte 0 -- -- 60
2020-03-11 19:00:00 15 3 Noroeste 12 Sudeste 0 -- -- 54
2020-03-11 18:00:00 16.9 3 Norte 18 Oeste 0 -- -- 47
2020-03-11 17:00:00 19.1 4 Nordeste 23 Sudeste 0 -- -- 45
2020-03-11 16:00:00 19.9 8 Sudeste 25 Sur 0 -- -- 39
2020-03-11 15:00:00 19.3 6 Sudeste 24 Sur 0 -- -- 39
2020-03-11 14:00:00 18.2 5 Oeste 22 Oeste 0 -- -- 38
2020-03-11 13:00:00 17.8 6 Oeste 22 Sur 0 -- -- 34
2020-03-11 12:00:00 17.3 8 Sur 22 Sudeste 0 -- -- 42
2020-03-11 11:00:00 15.3 4 Este 11 Sur 0 -- -- 45
2020-03-11 10:00:00 13.4 4 Sur 9 Sudeste 0 -- -- 49
2020-03-11 09:00:00 8.6 0 Calma 5 Noroeste 0 -- -- 71
2020-03-11 08:00:00 4.6 3 Noroeste 6 Noroeste 0 -- -- 82
2020-03-11 07:00:00 4.5 5 Noroeste 8 Noroeste 0 -- -- 84
2020-03-11 06:00:00 4.5 4 Noroeste 6 Noroeste 0 -- -- 82
2020-03-11 05:00:00 4.2 4 Noroeste 7 Noroeste 0 -- -- 83
2020-03-11 04:00:00 4.9 3 Noroeste 6 Noroeste 0 -- -- 79
2020-03-11 03:00:00 5.3 3 Noroeste 7 Noroeste 0 -- -- 85
2020-03-11 02:00:00 4.8 2 Noroeste 6 Noroeste 0 -- -- 81
2020-03-11 01:00:00 4.7 2 Oeste 6 Noroeste 0 -- -- 79
2020-03-11 00:00:00 4.9 3 Noroeste 6 Noroeste 0 -- -- 77
2020-03-10 23:00:00 5.4 5 Noroeste 7 Noroeste 0 -- -- 77
2020-03-10 22:00:00 6.6 4 Noroeste 14 Noroeste 0 -- -- 72
2020-03-10 21:00:00 8.3 7 Noroeste 13 Norte 0 -- -- 66
2020-03-10 20:00:00 9.6 3 Noroeste 9 Oeste 0 -- -- 58
2020-03-10 19:00:00 13.2 3 Noroeste 9 Oeste 0 -- -- 47
2020-03-10 18:00:00 16 6 Noroeste 14 Noroeste 0 -- -- 30
2020-03-10 17:00:00 17.6 4 Noroeste 17 Noroeste 0 -- -- 28
2020-03-10 16:00:00 17.7 5 Noroeste 19 Noroeste 0 -- -- 28
2020-03-10 15:00:00 17.1 8 Noroeste 18 Noroeste 0 -- -- 25
2020-03-10 14:00:00 16.6 5 Oeste 19 Sudoeste 0 -- -- 25
2020-03-10 13:00:00 16.5 5 Sur 17 Sudeste 0 -- -- 24
2020-03-10 12:00:00 14.9 5 Sur 14 Sur 0 -- -- 31
2020-03-10 11:00:00 12.1 3 Oeste 9 Sur 0 -- -- 41
2020-03-10 10:00:00 10.2 0 Calma 5 Sudoeste 0 -- -- 65
2020-03-10 09:00:00 6.8 3 Noroeste 7 Noroeste 0 -- -- 79
2020-03-10 08:00:00 4.7 3 Noroeste 6 Noroeste 0 -- -- 81
2020-03-10 07:00:00 4 2 Noroeste 4 Oeste 0 -- -- 82
2020-03-10 06:00:00 4.7 4 Noroeste 8 Oeste 0 -- -- 80
2020-03-10 05:00:00 4.4 3 Oeste 7 Noroeste 0 -- -- 80
2020-03-10 04:00:00 4.3 4 Noroeste 7 Noroeste 0 -- -- 81
2020-03-10 03:00:00 3.7 0 Calma 8 Noroeste 0 -- -- 74
2020-03-10 02:00:00 4 4 Noroeste 6 Norte 0 -- -- 75
2020-03-10 01:00:00 3.8 4 Noroeste 9 Noroeste 0 -- -- 74
2020-03-10 00:00:00 3 5 Noroeste 7 Noroeste 0 -- -- 80
2020-03-09 23:00:00 2.9 2 Noroeste 6 Oeste 0 -- -- 80
2020-03-09 22:00:00 3.1 2 Noroeste 4 Noroeste 0 -- -- 84
2020-03-09 21:00:00 3.3 3 Noroeste 5 Noroeste 0 -- -- 84
2020-03-09 20:00:00 4.5 3 Noroeste 6 Noroeste 0 -- -- 77
2020-03-09 19:00:00 7.2 0 Calma 9 Sudeste 0 -- -- 66
2020-03-09 18:00:00 8.8 3 Nordeste 15 Sur 0 -- -- 60
2020-03-09 17:00:00 10.2 4 Este 19 Sur 0 -- -- 52
2020-03-09 16:00:00 10.3 7 Sur 18 Sudeste 0 -- -- 52
2020-03-09 15:00:00 9.6 5 Sur 23 Sudoeste 0 -- -- 53
2020-03-09 14:00:00 7.8 5 Este 17 Sudeste 0 -- -- 60
2020-03-09 13:00:00 6.6 4 Sur 19 Sudeste 0 -- -- 63
2020-03-09 12:00:00 6.5 5 Este 17 Sur 0 -- -- 68
2020-03-09 11:00:00 5 4 Este 16 Sudoeste 0 -- -- 78
2020-03-09 10:00:00 2.6 2 Norte 9 Noroeste 0 -- -- 89
2020-03-09 09:00:00 1 0 Calma 7 Oeste 0 -- -- 97
2020-03-09 08:00:00 1 5 Oeste 21 Oeste 0 -- -- 89
2020-03-09 07:00:00 1.2 7 Noroeste 18 Oeste 0 -- -- 87
2020-03-09 06:00:00 1 7 Oeste 18 Oeste 0 -- -- 89
2020-03-09 05:00:00 1.3 3 Noroeste 23 Oeste 0 -- -- 95
2020-03-09 04:00:00 2.1 8 Oeste 18 Oeste 0 -- -- 86
2020-03-09 03:00:00 2.4 4 Oeste 14 Noroeste 0 -- -- 89
2020-03-09 02:00:00 2.4 6 Oeste 21 Oeste 0 -- -- 88
2020-03-09 01:00:00 2.7 6 Oeste 20 Noroeste 0 -- -- 85
2020-03-09 00:00:00 3 5 Oeste 22 Noroeste 0 -- -- 79
2020-03-08 23:00:00 3.4 5 Oeste 28 Noroeste 0 -- -- 80
2020-03-08 22:00:00 4.1 8 Noroeste 22 Noroeste 0 -- -- 83
2020-03-08 21:00:00 4.7 6 Norte 25 Oeste 0 -- -- 82
2020-03-08 20:00:00 5.2 5 Noroeste 28 Oeste 0 -- -- 76
2020-03-08 19:00:00 6.2 9 Noroeste 23 Noroeste 0 -- -- 74
2020-03-08 18:00:00 7.2 5 Noroeste 26 Sudoeste 0 -- -- 73
2020-03-08 17:00:00 8.3 8 Oeste 28 Noroeste 0 -- -- 70
2020-03-08 16:00:00 7.9 8 Noroeste 25 Noroeste 0 -- -- 74
2020-03-08 15:00:00 9.8 6 Noroeste 20 Sur 0 -- -- 74
2020-03-08 14:00:00 8.8 5 Noroeste 24 Oeste 0 -- -- 85
2020-03-08 13:00:00 7.5 5 Norte 22 Noroeste 0 -- -- 95
2020-03-08 12:00:00 5.7 3 Norte 13 Oeste 0 -- -- 100
2020-03-08 11:00:00 5 3 Sudeste 5 Sudeste 0 -- -- 100
2020-03-08 10:00:00 4.2 0 Calma 5 Oeste 0 -- -- 100
2020-03-08 09:00:00 2.4 0 Calma 7 Norte 0 -- -- 98
2020-03-08 08:00:00 2 4 Noroeste 6 Noroeste 0 -- -- 96
2020-03-08 07:00:00 1.6 0 Calma 5 Oeste 0 -- -- 94
2020-03-08 06:00:00 1.4 3 Oeste 6 Noroeste 0 -- -- 92
2020-03-08 05:00:00 0.9 0 Calma 5 Noroeste 0 -- -- 93
2020-03-08 04:00:00 0.4 3 Noroeste 9 Noroeste 0 -- -- 95
2020-03-08 03:00:00 0.4 5 Noroeste 9 Noroeste 0 -- -- 91
2020-03-08 02:00:00 0.2 5 Noroeste 8 Oeste 0 -- -- 95
2020-03-08 01:00:00 0.3 4 Noroeste 8 Noroeste 0 -- -- 95
2020-03-08 00:00:00 1 3 Noroeste 8 Noroeste 0 -- -- 91
2020-03-07 23:00:00 1.1 4 Noroeste 8 Noroeste 0 -- -- 89
2020-03-07 22:00:00 1.4 3 Norte 8 Noroeste 0 -- -- 95
2020-03-07 21:00:00 1.7 3 Noroeste 7 Noroeste 0 -- -- 96
2020-03-07 20:00:00 2.5 4 Noroeste 6 Noroeste 0 -- -- 93
2020-03-07 19:00:00 5 0 Calma 9 Oeste 0 -- -- 87
2020-03-07 18:00:00 7.9 3 Noroeste 12 Sudoeste 0 -- -- 74
2020-03-07 17:00:00 8.8 3 Oeste 11 Oeste 0 -- -- 69
2020-03-07 16:00:00 8.8 4 Norte 18 Sudoeste 0 -- -- 73
2020-03-07 15:00:00 7.7 4 Oeste 17 Sur 0 -- -- 75
2020-03-07 14:00:00 6.3 4 Noroeste 13 Sur 0 -- -- 80
2020-03-07 13:00:00 4.5 3 Noroeste 10 Noroeste 0 -- -- 86
2020-03-07 12:00:00 3.8 3 Sudoeste 15 Oeste 0.8 -- -- 87
2020-03-07 11:00:00 3 4 Oeste 12 Noroeste 1.2 -- -- 85
2020-03-07 10:00:00 2.1 0 Calma 6 Noroeste 0.6 -- -- 100
2020-03-07 09:00:00 1.2 0 Calma 6 Sudoeste 0.2 -- -- 100
2020-03-07 08:00:00 1.1 2 Noroeste 15 Oeste 0 -- -- 99
2020-03-07 07:00:00 1.5 5 Oeste 17 Noroeste 0.4 -- -- 96
2020-03-07 06:00:00 1.5 5 Sudoeste 26 Oeste 1 -- -- 98
2020-03-07 05:00:00 1.6 4 Oeste 16 Oeste 1 -- -- 100
2020-03-07 04:00:00 1.6 3 Oeste 17 Oeste 1.2 -- -- 99
2020-03-07 03:00:00 1.6 3 Noroeste 25 Oeste 1 -- -- 98
2020-03-07 02:00:00 1.5 7 Oeste 24 Noroeste 1.4 -- -- 99
2020-03-07 01:00:00 1.4 6 Oeste 23 Oeste 0.8 -- -- 99
2020-03-07 00:00:00 0.7 5 Sudoeste 28 Noroeste 0.8 -- -- 99
2020-03-06 23:00:00 0.6 5 Sudoeste 31 Sudoeste 0 -- -- 97
2020-03-06 22:00:00 0.2 5 Oeste 26 Sudoeste 0 -- -- 95
2020-03-06 21:00:00 0.2 11 Oeste 39 Oeste 0 -- -- 84
2020-03-06 20:00:00 0 8 Oeste 35 Sudoeste 0 -- -- 79
2020-03-06 19:00:00 0.4 9 Oeste 33 Noroeste 0.2 -- -- 82
2020-03-06 18:00:00 0.7 13 Oeste 37 Noroeste 0.8 -- -- 86
2020-03-06 17:00:00 0.9 15 Oeste 45 Noroeste 1.8 -- -- 83
2020-03-06 16:00:00 1.2 12 Oeste 47 Oeste 2.8 -- -- 79
2020-03-06 15:00:00 0.8 16 Oeste 44 Oeste 3.8 -- -- 81
2020-03-06 14:00:00 0.1 21 Oeste 49 Noroeste 4.6 -- -- 89
2020-03-06 13:00:00 0.2 18 Oeste 48 Oeste 1.2 -- -- 80
2020-03-06 12:00:00 -0.9 16 Oeste 45 Oeste 0 -- -- 90
2020-03-06 11:00:00 -1.3 9 Oeste 36 Oeste 0 -- -- 94
2020-03-06 10:00:00 -1.2 13 Oeste 50 Oeste 0 -- -- 91
2020-03-06 09:00:00 -1.3 8 Oeste 39 Oeste 0 -- -- 96
2020-03-06 08:00:00 -1 10 Noroeste 33 Oeste 0 -- -- 95
2020-03-06 07:00:00 -0.9 6 Noroeste 25 Oeste 0 -- -- 97
2020-03-06 06:00:00 -0.9 7 Oeste 46 Oeste 0 -- -- 92
2020-03-06 05:00:00 -0.5 0 Calma -- -- 0 -- -- 96
2020-03-06 04:00:00 -0.4 0 Calma -- -- 0 -- -- 96
2020-03-06 03:00:00 -0.1 0 Calma -- -- 0 -- -- 99
2020-03-06 02:00:00 -0.1 0 Calma -- -- 0 -- -- 99
2020-03-06 01:00:00 0 0 Calma -- -- 0 -- -- 99
2020-03-06 00:00:00 0.1 0 Calma 15 Noroeste 0 -- -- 99
2020-03-05 23:00:00 0.3 2 Noroeste 24 Noroeste 0 -- -- 98
2020-03-05 22:00:00 0.4 5 Noroeste 14 Noroeste 0.2 -- -- 98
2020-03-05 21:00:00 0.9 3 Noroeste 20 Noroeste 0 -- -- 96
2020-03-05 20:00:00 1.1 5 Noroeste 25 Noroeste 0.2 -- -- 92
2020-03-05 19:00:00 1.2 4 Noroeste 31 Oeste 0.6 -- -- 94
2020-03-05 18:00:00 1.8 6 Noroeste 24 Noroeste 0.4 -- -- 93
2020-03-05 17:00:00 2.4 7 Noroeste 28 Oeste 1.2 -- -- 95
2020-03-05 16:00:00 3.1 6 Noroeste 17 Oeste 0.4 -- -- 95
2020-03-05 15:00:00 3.1 5 Sudoeste 42 Oeste 0.4 -- -- 92
2020-03-05 14:00:00 3 8 Oeste 24 Oeste 1.8 -- -- 98
2020-03-05 13:00:00 2.7 6 Noroeste 15 Norte 1.6 -- -- 99
2020-03-05 12:00:00 2.6 9 Noroeste 32 Noroeste 1.4 -- -- 96
2020-03-05 11:00:00 2.2 8 Noroeste 31 Sudoeste 0.4 -- -- 97
2020-03-05 10:00:00 2 8 Noroeste 42 Noroeste 0.6 -- -- 95
2020-03-05 09:00:00 1.8 7 Noroeste 35 Oeste 2.4 -- -- 96
2020-03-05 08:00:00 2.6 8 Noroeste 42 Noroeste 1.8 -- -- 94
2020-03-05 07:00:00 3.4 12 Noroeste 35 Noroeste 2 -- -- 94
2020-03-05 06:00:00 5.5 15 Noroeste 65 Oeste 5 -- -- 93
2020-03-05 05:00:00 6.9 5 Norte 20 Nordeste 4.6 -- -- 97
2020-03-05 04:00:00 7.1 6 Nordeste 24 Sudeste 2.4 -- -- 98
2020-03-05 03:00:00 7.4 8 Sudeste 34 Sudeste 1 -- -- 95
2020-03-05 02:00:00 7.4 4 Nordeste 27 Este 0.2 -- -- 95
2020-03-05 01:00:00 7.8 10 Nordeste 29 Sudoeste 0 -- -- 92
2020-03-05 00:00:00 7.9 8 Nordeste 17 Nordeste 0.4 -- -- 96
2020-03-04 23:00:00 7.8 5 Noroeste 14 Noroeste 0 -- -- 96
2020-03-04 22:00:00 7.9 6 Noroeste 19 Noroeste 0 -- -- 94
2020-03-04 21:00:00 7.9 5 Noroeste 19 Noroeste 0 -- -- 94
2020-03-04 20:00:00 7.9 9 Noroeste 20 Noroeste 0 -- -- 93
2020-03-04 19:00:00 8.4 7 Noroeste 21 Noroeste 0 -- -- 86
2020-03-04 18:00:00 8.9 4 Nordeste 12 Norte 0 -- -- 79
2020-03-04 17:00:00 9.3 6 Norte 14 Nordeste 0 -- -- 80
2020-03-04 16:00:00 10.1 5 Nordeste 14 Este 0 -- -- 80
2020-03-04 15:00:00 9.9 6 Nordeste 16 Norte 0 -- -- 84
2020-03-04 14:00:00 8.6 7 Noroeste 14 Noroeste 0 -- -- 92
2020-03-04 13:00:00 8.5 5 Noroeste 15 Norte 0 -- -- 91
2020-03-04 12:00:00 7.9 6 Noroeste 14 Sudoeste 0.2 -- -- 94
2020-03-04 11:00:00 7 4 Noroeste 15 Oeste 0 -- -- 97
2020-03-04 10:00:00 6.2 4 Oeste 25 Noroeste 0 -- -- 97
2020-03-04 09:00:00 6 6 Noroeste 22 Oeste 0.2 -- -- 97
2020-03-04 08:00:00 6.2 9 Noroeste 31 Noroeste 0.2 -- -- 94
2020-03-04 07:00:00 6.4 3 Noroeste 11 Noroeste 0.6 -- -- 99
2020-03-04 06:00:00 6.3 3 Noroeste 23 Oeste 0.4 -- -- 97
2020-03-04 05:00:00 6.7 8 Noroeste 25 Oeste 0.2 -- -- 92
2020-03-04 04:00:00 7.2 9 Noroeste 26 Noroeste 0.2 -- -- 98
2020-03-04 03:00:00 7.2 6 Oeste 21 Oeste 0.6 -- -- 100
2020-03-04 02:00:00 6.6 2 Noroeste 9 Oeste 1 -- -- 100
2020-03-04 01:00:00 5.8 3 Noroeste 8 Oeste 1.8 -- -- 100
2020-03-04 00:00:00 3.9 0 Calma 4 Noroeste 1 -- -- 100
2020-03-03 23:00:00 3.4 2 Noroeste 4 Noroeste 2.2 -- -- 99
2020-03-03 22:00:00 3.2 2 Oeste 6 Noroeste 0.6 -- -- 96
2020-03-03 21:00:00 4.8 3 Oeste 22 Oeste 0 -- -- 80
2020-03-03 20:00:00 4.7 8 Noroeste 21 Oeste 0.4 -- -- 81
2020-03-03 19:00:00 5.8 7 Noroeste 27 Oeste 0 -- -- 76
2020-03-03 18:00:00 6.4 12 Noroeste 28 Oeste 0 -- -- 77
2020-03-03 17:00:00 6.6 8 Noroeste 25 Noroeste 0 -- -- 82
2020-03-03 16:00:00 7 8 Noroeste 34 Oeste 0 -- -- 81
2020-03-03 15:00:00 7.2 7 Noroeste 28 Noroeste 0 -- -- 84
2020-03-03 14:00:00 7 10 Noroeste 29 Noroeste 0 -- -- 84
2020-03-03 13:00:00 7.1 11 Noroeste 31 Noroeste 0 -- -- 86
2020-03-03 12:00:00 7.4 12 Noroeste 43 Oeste 2.4 -- -- 90
2020-03-03 11:00:00 7.1 16 Noroeste 44 Oeste 7.4 -- -- 94
2020-03-03 10:00:00 6.6 15 Noroeste 43 Noroeste 10.2 -- -- 96
2020-03-03 09:00:00 6.1 17 Noroeste 49 Oeste 14.2 -- -- 97
2020-03-03 08:00:00 5 17 Noroeste 48 Oeste 8.6 -- -- 99
2020-03-03 07:00:00 -- -- -- -- -- -- -- -- --
2020-03-03 06:00:00 0.8 2 Noroeste -- -- -- -- -- 99
2020-03-03 05:00:00 -- -- -- -- -- -- -- -- --
2020-03-03 04:00:00 -- -- -- -- -- -- -- -- --
2020-03-03 03:00:00 -- -- -- -- -- -- -- -- --
2020-03-03 02:00:00 -- -- -- -- -- -- -- -- --
2020-03-03 01:00:00 -- -- -- -- -- -- -- -- --
2020-03-03 00:00:00 -- -- -- -- -- -- -- -- --
2020-03-02 23:00:00 -- -- -- -- -- -- -- -- --
2020-03-02 22:00:00 -- -- -- -- -- -- -- -- --
2020-03-02 21:00:00 -- -- -- -- -- -- -- -- --
2020-03-02 20:00:00 -- -- -- -- -- -- -- -- --
2020-03-02 19:00:00 -- -- -- -- -- -- -- -- --
2020-03-02 18:00:00 -- -- -- -- -- -- -- -- --
2020-03-02 17:00:00 -- -- -- -- -- -- -- -- --
2020-03-02 16:00:00 -- -- -- -- -- -- -- -- --
2020-03-02 15:00:00 -- -- -- -- -- -- -- -- --
2020-03-02 14:00:00 -1.2 -- -- -- -- -- -- -- 92
2020-03-02 13:00:00 -1.1 -- -- -- -- -- -- -- 96
2020-03-02 12:00:00 -1.4 -- -- -- -- -- -- -- 96
2020-03-02 11:00:00 -1.1 -- -- -- -- 0 -- -- 97
2020-03-02 10:00:00 -1.5 -- -- -- -- 0 -- -- 98
2020-03-02 09:00:00 -1.2 -- -- -- -- 0 -- -- 97
2020-03-02 08:00:00 -0.7 -- -- -- -- 0 -- -- 97
2020-03-02 07:00:00 -0.3 -- -- -- -- 0 -- -- 97
2020-03-02 06:00:00 0.2 6 Noroeste 30 Noroeste 0 -- -- 97
2020-03-02 05:00:00 1.1 11 Noroeste 51 Noroeste 1.4 -- -- 92
2020-03-02 04:00:00 2.7 16 Noroeste 48 Noroeste 2.6 -- -- 91
2020-03-02 03:00:00 4.7 10 Noroeste 75 Noroeste 4.6 -- -- 94
2020-03-02 02:00:00 6.9 22 Noroeste 56 Noroeste 3 -- -- 94
2020-03-02 01:00:00 6.2 10 Noroeste 32 Noroeste 7.6 -- -- 99
2020-03-02 00:00:00 4.3 12 Noroeste 31 Oeste 3 -- -- 97